Time;durP1;ratioP1;P1;durP2;ratioP2;P2;SDS_P1;SDS_P2;PMS_P1;PMS_P2;Temp;Humidity;BMP_temperature;BMP_pressure;BME280_temperature;BME280_humidity;BME280_pressure;Samples;Min_cycle;Max_cycle;Signal;HPM_P1;HPM_P2
2023/01/28 00:01:12;;;;;;;11.73;8.00;;;4.90;99.90;;;;;;5091985;28;20220;-70
2023/01/28 00:03:38;;;;;;;11.87;8.20;;;5.10;99.90;;;;;;5092108;28;20189;-70
2023/01/28 00:06:10;;;;;;;15.73;7.67;;;5.10;99.90;;;;;;5108103;28;20290;-69
2023/01/28 00:08:36;;;;;;;11.60;6.67;;;5.00;99.90;;;;;;5092071;28;20185;-69
2023/01/28 00:11:04;;;;;;;11.60;6.47;;;4.90;99.90;;;;;;5091892;28;20176;-69
2023/01/28 00:13:31;;;;;;;13.53;7.77;;;4.90;99.90;;;;;;5090580;28;20234;-69
2023/01/28 00:15:59;;;;;;;14.03;7.57;;;4.80;99.90;;;;;;5068495;28;20182;-69
2023/01/28 00:18:26;;;;;;;11.40;7.33;;;4.80;99.90;;;;;;5090581;28;20181;-69
2023/01/28 00:21:03;;;;;;;13.73;8.30;;;4.70;99.90;;;;;;5083420;28;20276;-69
2023/01/28 00:23:31;;;;;;;11.63;7.20;;;4.70;99.90;;;;;;5080802;28;20181;-69
2023/01/28 00:26:01;;;;;;;12.20;7.50;;;4.60;99.90;;;;;;5074732;28;20181;-69
2023/01/28 00:28:28;;;;;;;9.07;5.97;;;4.80;99.90;;;;;;5086308;28;20185;-69
2023/01/28 00:30:53;;;;;;;13.80;7.57;;;4.90;99.90;;;;;;5090222;28;20185;-69
2023/01/28 00:33:19;;;;;;;13.30;7.47;;;4.90;99.90;;;;;;5090846;28;20207;-69
2023/01/28 00:35:45;;;;;;;10.07;7.03;;;5.00;99.90;;;;;;5075396;28;20193;-69
2023/01/28 00:38:11;;;;;;;12.10;7.23;;;5.00;99.90;;;;;;5083192;28;20182;-69
2023/01/28 00:40:37;;;;;;;11.30;6.50;;;4.90;99.90;;;;;;5088256;28;20215;-69
2023/01/28 00:43:03;;;;;;;9.80;6.37;;;4.90;99.90;;;;;;5090938;28;20197;-69
2023/01/28 00:45:29;;;;;;;7.07;5.43;;;4.90;99.90;;;;;;5083664;28;20315;-69
2023/01/28 00:47:54;;;;;;;12.57;6.53;;;4.90;99.90;;;;;;5089641;28;20192;-69
2023/01/28 00:50:20;;;;;;;10.83;6.97;;;4.90;99.90;;;;;;5089909;28;20196;-69
2023/01/28 00:52:48;;;;;;;12.93;7.07;;;5.00;99.90;;;;;;5088563;28;20194;-69
2023/01/28 00:55:14;;;;;;;10.50;6.27;;;5.00;99.90;;;;;;5088160;28;20203;-70
2023/01/28 00:57:40;;;;;;;13.77;6.73;;;4.90;99.90;;;;;;5082766;28;20229;-69
2023/01/28 01:00:06;;;;;;;11.70;7.70;;;4.90;99.90;;;;;;5110812;28;20275;-69
2023/01/28 01:02:32;;;;;;;12.70;8.53;;;4.80;99.90;;;;;;5079148;28;20197;-70
2023/01/28 01:04:58;;;;;;;12.27;7.30;;;4.80;99.90;;;;;;5081199;28;20242;-70
2023/01/28 01:07:42;;;;;;;11.80;6.70;;;4.80;99.90;;;;;;5090178;28;20196;-69
2023/01/28 01:10:13;;;;;;;11.83;7.20;;;4.90;99.90;;;;;;5090083;28;20184;-70
2023/01/28 01:12:40;;;;;;;13.33;7.43;;;4.70;99.90;;;;;;5082787;28;20264;-69
2023/01/28 01:15:09;;;;;;;16.30;8.80;;;4.70;99.90;;;;;;5089343;28;20214;-69
2023/01/28 01:17:40;;;;;;;13.13;7.20;;;4.60;99.90;;;;;;5088928;28;20185;-69
2023/01/28 01:20:10;;;;;;;13.03;7.63;;;4.60;99.90;;;;;;5088286;28;20205;-69
2023/01/28 01:22:36;;;;;;;13.70;7.20;;;4.50;99.90;;;;;;5113380;28;20271;-69
2023/01/28 01:25:04;;;;;;;17.47;8.10;;;4.60;99.90;;;;;;5085220;28;20198;-69
2023/01/28 01:27:30;;;;;;;10.83;7.10;;;4.60;99.90;;;;;;5076983;28;20263;-69
2023/01/28 01:29:57;;;;;;;15.37;8.40;;;4.60;99.90;;;;;;5090590;28;20700;-69
2023/01/28 01:32:30;;;;;;;13.30;7.13;;;4.70;99.90;;;;;;5101785;28;20185;-69
2023/01/28 01:34:56;;;;;;;12.20;7.07;;;4.80;99.90;;;;;;5078879;28;20169;-69
2023/01/28 01:37:22;;;;;;;13.87;6.47;;;4.70;99.90;;;;;;5084923;28;20280;-69
2023/01/28 01:39:48;;;;;;;11.40;7.23;;;4.60;99.90;;;;;;5075659;28;20200;-69
2023/01/28 01:42:14;;;;;;;12.23;7.03;;;4.50;99.90;;;;;;5087176;28;20242;-69
2023/01/28 01:45:18;;;;;;;10.83;7.03;;;4.40;99.90;;;;;;5091285;28;20677;-69
2023/01/28 01:47:51;;;;;;;10.60;6.40;;;4.50;99.90;;;;;;5087560;28;20181;-69
2023/01/28 01:50:41;;;;;;;11.60;7.23;;;4.40;99.90;;;;;;5094178;28;20263;-70
2023/01/28 01:53:14;;;;;;;10.87;7.80;;;4.40;99.90;;;;;;5085704;28;20184;-70
2023/01/28 01:55:43;;;;;;;11.37;6.43;;;4.70;99.90;;;;;;5094132;28;20207;-69
2023/01/28 01:58:13;;;;;;;13.90;8.00;;;4.80;99.90;;;;;;5094902;28;20240;-69
2023/01/28 02:00:40;;;;;;;11.33;7.30;;;4.60;99.90;;;;;;5084899;28;20212;-69
2023/01/28 02:03:07;;;;;;;14.83;8.10;;;4.60;99.90;;;;;;5094569;28;20200;-69
2023/01/28 02:05:33;;;;;;;10.83;6.30;;;4.70;99.90;;;;;;5089779;28;20231;-69
2023/01/28 02:10:45;;;;;;;12.90;6.93;;;4.60;99.90;;;;;;5094304;28;20203;-69
2023/01/28 02:13:11;;;;;;;13.80;7.30;;;4.60;99.90;;;;;;5094039;28;20189;-69
2023/01/28 02:15:37;;;;;;;14.57;8.23;;;4.60;99.90;;;;;;5093714;28;20192;-69
2023/01/28 02:18:03;;;;;;;13.13;7.20;;;4.80;99.90;;;;;;5093955;28;20189;-69
2023/01/28 02:20:59;;;;;;;12.43;6.77;;;4.90;99.90;;;;;;5090839;28;20220;-69
2023/01/28 02:23:39;;;;;;;11.70;6.23;;;4.70;99.90;;;;;;5091523;28;20534;-69
2023/01/28 02:26:58;;;;;;;12.40;6.87;;;4.60;99.90;;;;;;5083225;28;20256;-69
2023/01/28 02:29:35;;;;;;;12.80;6.37;;;4.70;99.90;;;;;;5011260;28;20689;-69
2023/01/28 02:32:18;;;;;;;12.33;7.93;;;4.50;99.90;;;;;;5078290;28;20277;-70
2023/01/28 02:34:46;;;;;;;12.27;6.87;;;4.50;99.90;;;;;;5094189;28;20573;-69
2023/01/28 02:37:35;;;;;;;14.47;7.97;;;4.40;99.90;;;;;;5093303;28;20187;-70
2023/01/28 02:40:17;;;;;;;13.80;7.53;;;4.50;99.90;;;;;;5082634;28;20548;-69
2023/01/28 02:42:43;;;;;;;9.90;6.57;;;4.50;99.90;;;;;;5088033;28;20185;-70
2023/01/28 02:45:22;;;;;;;13.03;6.60;;;4.50;99.90;;;;;;5092362;28;20207;-69
2023/01/28 02:47:57;;;;;;;10.10;6.10;;;4.50;99.90;;;;;;5090202;28;20181;-69
2023/01/28 02:50:30;;;;;;;11.90;6.80;;;4.40;99.90;;;;;;5079901;28;20188;-70
2023/01/28 02:56:09;;;;;;;13.43;6.97;;;4.40;99.90;;;;;;5092072;28;20230;-70
2023/01/28 02:58:41;;;;;;;10.13;6.43;;;4.30;99.90;;;;;;5093274;28;20207;-70
2023/01/28 03:01:17;;;;;;;13.70;7.23;;;4.50;99.90;;;;;;5091503;28;20193;-70
2023/01/28 03:03:58;;;;;;;13.87;6.83;;;4.50;99.90;;;;;;5081504;28;20173;-69
2023/01/28 03:06:58;;;;;;;11.93;6.53;;;4.50;99.90;;;;;;5084121;28;20653;-71
2023/01/28 03:09:25;;;;;;;11.23;6.73;;;4.40;99.90;;;;;;5049142;28;20544;-70
2023/01/28 03:37:14;;;;;;;13.27;7.27;;;4.40;99.90;;;;;;5076693;28;20243;-69
2023/01/28 03:39:40;;;;;;;11.37;5.33;;;4.40;99.90;;;;;;5079031;28;20209;-70
2023/01/28 03:42:09;;;;;;;11.50;7.27;;;4.50;99.90;;;;;;5113262;27;20181;-69
2023/01/28 03:44:53;;;;;;;15.27;6.93;;;4.50;99.90;;;;;;5084366;28;20263;-69
2023/01/28 03:47:23;;;;;;;16.00;7.47;;;4.40;99.90;;;;;;5092774;28;20660;-69
2023/01/28 03:49:51;;;;;;;13.73;7.37;;;4.60;99.90;;;;;;5086318;28;20199;-69
2023/01/28 03:52:20;;;;;;;13.27;6.67;;;4.50;99.90;;;;;;5089084;28;20537;-69
2023/01/28 03:54:48;;;;;;;14.47;6.60;;;4.50;99.90;;;;;;5089377;28;20238;-69
2023/01/28 03:57:15;;;;;;;8.90;6.47;;;4.30;99.90;;;;;;5094123;28;20696;-69
2023/01/28 03:59:41;;;;;;;12.83;6.43;;;4.20;99.90;;;;;;5085815;28;20295;-69
2023/01/28 04:02:09;;;;;;;8.60;6.20;;;4.20;99.90;;;;;;5082604;28;20223;-69
2023/01/28 04:04:38;;;;;;;15.27;7.63;;;4.20;99.90;;;;;;5117267;27;20285;-69
2023/01/28 04:07:05;;;;;;;12.93;7.13;;;4.20;99.90;;;;;;5092053;28;20549;-69
2023/01/28 04:09:30;;;;;;;15.37;7.27;;;4.20;99.90;;;;;;5091758;28;20185;-69
2023/01/28 04:11:56;;;;;;;17.67;7.73;;;4.30;99.90;;;;;;5092227;28;20585;-69
2023/01/28 04:14:22;;;;;;;14.23;6.93;;;4.50;99.90;;;;;;5092355;28;20212;-69
2023/01/28 04:16:48;;;;;;;11.07;5.97;;;4.50;99.90;;;;;;5091330;28;20218;-69
2023/01/28 04:19:14;;;;;;;12.73;7.43;;;4.40;99.90;;;;;;5089683;28;20209;-69
2023/01/28 04:21:40;;;;;;;13.73;7.10;;;4.50;99.90;;;;;;5090014;28;20189;-69
2023/01/28 04:24:06;;;;;;;14.83;7.60;;;4.50;99.90;;;;;;5083705;28;20188;-70
2023/01/28 04:26:32;;;;;;;15.57;7.83;;;4.60;99.90;;;;;;5069650;28;20190;-70
2023/01/28 04:28:58;;;;;;;11.13;6.50;;;4.50;99.90;;;;;;5092602;28;20196;-69
2023/01/28 04:31:23;;;;;;;11.93;6.57;;;4.50;99.90;;;;;;5078101;28;20264;-69
2023/01/28 04:33:49;;;;;;;11.93;7.23;;;4.60;99.90;;;;;;5086517;28;20219;-70
2023/01/28 04:36:15;;;;;;;15.20;7.83;;;4.50;99.90;;;;;;5091428;28;20189;-69
2023/01/28 04:38:41;;;;;;;13.27;7.17;;;4.40;99.90;;;;;;5091431;28;20189;-69
2023/01/28 04:41:07;;;;;;;14.00;7.33;;;4.20;99.90;;;;;;5090270;28;20230;-69
2023/01/28 04:43:33;;;;;;;11.43;7.43;;;4.10;99.90;;;;;;5081988;28;20264;-69
2023/01/28 04:45:59;;;;;;;18.40;8.17;;;4.10;99.90;;;;;;5087349;28;20223;-69
2023/01/28 04:48:24;;;;;;;16.60;8.60;;;4.20;99.90;;;;;;5102937;28;20560;-69
2023/01/28 04:50:50;;;;;;;12.87;7.17;;;4.10;99.90;;;;;;5089164;28;20212;-69
2023/01/28 04:53:16;;;;;;;10.87;7.77;;;4.00;99.90;;;;;;5083871;28;20189;-69
2023/01/28 04:55:44;;;;;;;12.40;8.33;;;4.10;99.90;;;;;;5085179;28;20185;-69
2023/01/28 04:58:09;;;;;;;11.87;8.20;;;4.10;99.90;;;;;;5124313;28;20285;-69
2023/01/28 05:00:35;;;;;;;12.17;7.37;;;4.00;99.90;;;;;;5090389;28;20294;-69
2023/01/28 05:03:01;;;;;;;16.20;9.03;;;4.00;99.90;;;;;;5088031;28;20277;-69
2023/01/28 05:05:27;;;;;;;11.27;6.80;;;3.80;99.90;;;;;;5080261;28;20190;-69
2023/01/28 05:07:54;;;;;;;14.87;9.37;;;3.90;99.90;;;;;;5124849;28;20189;-69
2023/01/28 05:10:21;;;;;;;15.17;7.10;;;3.90;99.90;;;;;;5084497;28;20334;-69
2023/01/28 05:12:47;;;;;;;13.00;6.57;;;4.00;99.90;;;;;;5094906;28;20191;-70
2023/01/28 05:15:17;;;;;;;9.90;6.23;;;4.00;99.90;;;;;;5074058;28;20280;-69
2023/01/28 05:17:44;;;;;;;15.27;6.83;;;3.90;99.90;;;;;;5076116;28;20182;-69
2023/01/28 05:20:11;;;;;;;13.40;6.70;;;3.90;99.90;;;;;;5087760;28;20213;-69
2023/01/28 05:22:37;;;;;;;11.03;6.47;;;3.90;99.90;;;;;;5088249;28;20581;-69
2023/01/28 05:25:03;;;;;;;14.77;7.53;;;3.90;99.90;;;;;;5092512;28;20200;-69
2023/01/28 05:27:29;;;;;;;9.60;6.57;;;3.90;99.90;;;;;;5094884;28;20212;-70
2023/01/28 05:29:55;;;;;;;12.57;7.30;;;3.90;99.90;;;;;;5093192;28;20222;-69
2023/01/28 05:32:21;;;;;;;10.17;6.97;;;3.80;99.90;;;;;;5093123;28;20188;-69
2023/01/28 05:34:47;;;;;;;10.20;7.03;;;3.90;99.90;;;;;;5094769;28;20201;-69
2023/01/28 05:37:12;;;;;;;9.60;6.37;;;4.00;99.90;;;;;;5095604;28;20181;-70
2023/01/28 05:39:38;;;;;;;11.07;6.77;;;3.90;99.90;;;;;;5093484;28;20212;-69
2023/01/28 05:42:04;;;;;;;11.63;6.77;;;4.00;99.90;;;;;;5084623;28;20189;-69
2023/01/28 05:44:29;;;;;;;11.03;7.10;;;3.90;99.90;;;;;;5106148;28;20654;-69
2023/01/28 05:46:55;;;;;;;12.03;7.13;;;3.80;99.90;;;;;;5086311;28;20203;-69
2023/01/28 05:49:21;;;;;;;12.33;7.07;;;3.90;99.90;;;;;;5091396;28;20189;-69
2023/01/28 05:51:47;;;;;;;14.50;8.07;;;3.90;99.90;;;;;;5092682;28;20208;-69
2023/01/28 05:54:13;;;;;;;13.93;7.63;;;3.80;99.90;;;;;;5092869;28;20552;-70
2023/01/28 05:56:39;;;;;;;10.73;6.73;;;3.80;99.90;;;;;;5093108;28;20228;-70
2023/01/28 05:59:06;;;;;;;10.13;5.87;;;3.70;99.90;;;;;;5127508;27;20253;-69
2023/01/28 06:01:32;;;;;;;14.00;6.07;;;3.70;99.90;;;;;;5093297;28;20319;-69
2023/01/28 06:03:59;;;;;;;11.00;6.50;;;3.70;99.90;;;;;;5124711;27;20721;-69
2023/01/28 06:06:24;;;;;;;12.90;6.97;;;3.70;99.90;;;;;;5092218;28;20191;-69
2023/01/28 06:08:50;;;;;;;15.20;6.80;;;3.70;99.90;;;;;;5094303;28;20292;-69
2023/01/28 06:11:16;;;;;;;11.57;6.93;;;3.60;99.90;;;;;;5078729;28;20245;-69
2023/01/28 06:13:42;;;;;;;11.33;6.40;;;3.60;99.90;;;;;;5064355;28;20185;-70
2023/01/28 06:16:07;;;;;;;9.67;6.30;;;3.70;99.90;;;;;;5093226;28;20185;-70
2023/01/28 06:18:34;;;;;;;13.53;7.03;;;3.90;99.90;;;;;;5125365;27;20195;-70
2023/01/28 06:20:59;;;;;;;8.57;5.97;;;4.00;99.90;;;;;;5101206;28;20624;-70
2023/01/28 06:23:25;;;;;;;10.43;5.70;;;3.90;99.90;;;;;;5076070;28;20272;-70
2023/01/28 06:25:55;;;;;;;11.70;6.57;;;3.80;99.90;;;;;;5089418;28;20265;-69
2023/01/28 06:28:21;;;;;;;15.30;7.60;;;3.70;99.90;;;;;;5087723;28;20189;-69
2023/01/28 06:30:48;;;;;;;12.63;7.80;;;3.60;99.90;;;;;;5087774;28;20203;-70
2023/01/28 06:33:14;;;;;;;10.63;6.97;;;3.50;99.90;;;;;;5109181;28;20280;-70
2023/01/28 06:35:40;;;;;;;19.63;11.87;;;3.60;99.90;;;;;;5090241;28;20280;-71
2023/01/28 06:38:05;;;;;;;15.53;8.80;;;3.50;99.90;;;;;;5082651;28;20204;-71
2023/01/28 06:40:31;;;;;;;12.73;7.13;;;3.70;99.90;;;;;;5081467;28;20591;-70
2023/01/28 06:42:57;;;;;;;9.63;7.00;;;3.80;99.90;;;;;;5092829;28;20244;-71
2023/01/28 06:45:22;;;;;;;12.93;6.80;;;3.80;99.90;;;;;;5093239;28;20193;-70
2023/01/28 06:47:48;;;;;;;11.27;7.23;;;3.70;99.90;;;;;;5087087;28;20580;-71
2023/01/28 06:50:14;;;;;;;12.20;8.77;;;3.50;99.90;;;;;;5086985;28;20541;-71
2023/01/28 06:52:40;;;;;;;14.20;9.53;;;3.50;99.90;;;;;;5123052;27;20192;-71
2023/01/28 06:55:06;;;;;;;13.30;7.30;;;3.40;99.90;;;;;;5093547;28;20175;-70
2023/01/28 06:57:32;;;;;;;12.37;5.83;;;3.50;99.90;;;;;;5090845;28;20583;-70
2023/01/28 06:59:58;;;;;;;12.53;8.03;;;3.50;99.90;;;;;;5091698;28;20200;-70
2023/01/28 07:02:24;;;;;;;13.13;6.53;;;3.50;99.90;;;;;;5093620;28;20195;-71
2023/01/28 07:04:49;;;;;;;11.27;7.10;;;3.50;99.90;;;;;;5111718;27;20198;-71
2023/01/28 07:07:15;;;;;;;11.90;7.97;;;3.60;99.90;;;;;;5118513;27;20185;-71
2023/01/28 07:09:40;;;;;;;12.50;7.00;;;3.80;99.90;;;;;;5089862;28;20199;-71
2023/01/28 07:12:06;;;;;;;24.47;10.93;;;3.90;99.90;;;;;;5091736;28;20208;-70
2023/01/28 07:14:32;;;;;;;10.33;6.17;;;3.90;99.90;;;;;;5091830;28;20192;-70
2023/01/28 07:16:58;;;;;;;18.77;10.00;;;4.10;99.90;;;;;;5091146;28;20238;-69
2023/01/28 07:19:23;;;;;;;16.13;8.10;;;4.20;99.90;;;;;;5090385;28;20208;-68
2023/01/28 07:21:49;;;;;;;9.73;7.33;;;3.80;99.90;;;;;;5075281;28;20197;-68
2023/01/28 07:24:14;;;;;;;12.07;6.40;;;3.60;99.90;;;;;;5093107;28;20215;-68
2023/01/28 07:26:40;;;;;;;13.37;8.10;;;3.40;99.90;;;;;;5081821;28;20226;-68
2023/01/28 07:29:07;;;;;;;12.83;7.33;;;3.50;99.90;;;;;;5082248;28;20193;-68
2023/01/28 07:31:33;;;;;;;9.07;6.27;;;3.60;99.90;;;;;;5076055;28;20219;-68
2023/01/28 07:33:58;;;;;;;8.60;5.77;;;3.60;99.90;;;;;;5097820;28;20279;-69
2023/01/28 07:36:24;;;;;;;11.23;7.07;;;3.70;99.90;;;;;;5091594;28;20221;-68
2023/01/28 07:38:50;;;;;;;13.23;8.17;;;3.60;99.90;;;;;;5077687;28;20189;-68
2023/01/28 07:41:15;;;;;;;13.87;8.80;;;3.80;99.90;;;;;;5084553;28;20196;-68
2023/01/28 07:43:41;;;;;;;11.60;7.87;;;3.70;99.90;;;;;;5077653;28;20680;-69
2023/01/28 07:46:07;;;;;;;9.67;7.07;;;3.60;99.90;;;;;;5110709;27;20291;-66
2023/01/28 07:48:32;;;;;;;13.30;7.77;;;3.60;99.90;;;;;;5085841;28;20188;-70
2023/01/28 07:50:59;;;;;;;15.67;8.17;;;3.50;99.90;;;;;;5081417;28;20603;-69
2023/01/28 07:53:25;;;;;;;13.07;7.23;;;3.70;99.90;;;;;;5123975;27;20188;-69
2023/01/28 07:55:50;;;;;;;11.77;6.80;;;3.50;99.90;;;;;;5092863;28;20291;-69
2023/01/28 07:58:16;;;;;;;12.47;7.20;;;3.60;99.90;;;;;;5083171;28;20315;-70
2023/01/28 08:00:42;;;;;;;11.23;7.80;;;3.70;99.90;;;;;;5084208;28;20289;-70
2023/01/28 08:03:14;;;;;;;12.80;7.50;;;3.50;99.90;;;;;;5090134;28;20254;-69
2023/01/28 08:05:48;;;;;;;16.23;7.63;;;3.50;99.90;;;;;;5086989;28;20271;-70
2023/01/28 08:08:15;;;;;;;13.20;8.17;;;3.60;99.90;;;;;;5118421;27;20208;-69
2023/01/28 08:10:42;;;;;;;15.80;8.70;;;3.60;99.90;;;;;;5085429;28;20193;-70
2023/01/28 08:13:09;;;;;;;15.10;9.40;;;3.40;99.90;;;;;;5075573;28;20200;-69
2023/01/28 08:15:35;;;;;;;11.83;7.47;;;3.30;99.90;;;;;;5084917;28;20187;-70
2023/01/28 08:18:03;;;;;;;12.80;8.03;;;3.30;99.90;;;;;;5076644;28;20180;-69
2023/01/28 08:20:29;;;;;;;14.27;7.63;;;3.40;99.90;;;;;;5076302;28;20697;-70
2023/01/28 08:23:14;;;;;;;13.33;7.97;;;3.60;99.90;;;;;;5118189;27;20172;-69
2023/01/28 08:25:40;;;;;;;18.63;8.10;;;3.50;99.90;;;;;;5092789;28;20185;-69
2023/01/28 08:28:06;;;;;;;12.70;7.77;;;3.50;99.90;;;;;;5073521;28;20196;-69
2023/01/28 08:30:32;;;;;;;14.03;7.07;;;3.60;99.90;;;;;;5073107;28;20189;-69
2023/01/28 08:32:59;;;;;;;14.40;8.83;;;3.70;99.90;;;;;;5077925;28;20181;-69
2023/01/28 08:35:27;;;;;;;14.53;9.53;;;3.80;99.90;;;;;;5085706;28;20517;-67
2023/01/28 08:37:53;;;;;;;15.23;7.67;;;3.90;99.90;;;;;;5085484;28;20185;-70
2023/01/28 08:40:19;;;;;;;13.20;8.17;;;4.00;99.90;;;;;;5086142;28;20272;-70
2023/01/28 08:42:51;;;;;;;17.83;9.10;;;4.00;99.90;;;;;;5073402;28;20701;-70
2023/01/28 08:45:18;;;;;;;14.27;8.00;;;4.00;99.90;;;;;;5114875;27;20595;-69
2023/01/28 08:47:51;;;;;;;13.77;7.67;;;4.00;99.90;;;;;;5082226;28;20184;-70
2023/01/28 08:50:19;;;;;;;12.17;7.77;;;3.80;99.90;;;;;;5093509;28;20192;-69
2023/01/28 08:52:46;;;;;;;16.77;7.80;;;3.80;99.90;;;;;;5090217;28;20185;-71
2023/01/28 08:55:12;;;;;;;17.80;7.60;;;3.80;99.90;;;;;;5076865;28;20181;-68
2023/01/28 08:57:38;;;;;;;15.40;8.90;;;3.70;99.90;;;;;;5088741;28;20594;-68
2023/01/28 09:00:05;;;;;;;16.30;8.40;;;3.70;99.90;;;;;;5077450;28;20212;-70
2023/01/28 09:02:31;;;;;;;15.90;8.30;;;3.70;99.90;;;;;;5092634;28;20535;-68
2023/01/28 09:04:57;;;;;;;13.80;7.50;;;3.70;99.90;;;;;;5084469;28;20178;-68
2023/01/28 09:07:22;;;;;;;15.63;8.27;;;3.90;99.90;;;;;;5080178;28;20181;-70
2023/01/28 09:09:48;;;;;;;14.53;7.63;;;3.90;99.90;;;;;;5076191;28;20703;-69
2023/01/28 09:12:15;;;;;;;16.10;8.07;;;4.00;99.90;;;;;;5094596;27;20193;-69
2023/01/28 09:14:41;;;;;;;15.37;9.37;;;3.80;99.90;;;;;;5083683;28;20551;-69
2023/01/28 09:17:07;;;;;;;17.27;8.70;;;3.80;99.90;;;;;;5077936;28;20256;-70
2023/01/28 09:19:33;;;;;;;15.97;8.40;;;3.70;99.90;;;;;;5092517;28;20563;-69
2023/01/28 09:21:58;;;;;;;14.37;8.13;;;3.80;99.90;;;;;;5082392;28;20278;-69
2023/01/28 09:24:24;;;;;;;15.73;8.80;;;4.00;99.90;;;;;;5088933;28;20184;-70
2023/01/28 09:26:50;;;;;;;13.47;8.23;;;4.10;99.90;;;;;;5086114;28;20216;-69
2023/01/28 09:29:16;;;;;;;15.63;7.57;;;4.00;99.90;;;;;;5086729;28;20730;-69
2023/01/28 09:31:42;;;;;;;16.23;8.37;;;4.10;99.90;;;;;;5082537;28;20276;-69
2023/01/28 09:34:09;;;;;;;14.87;9.40;;;4.40;99.90;;;;;;5081644;28;20216;-70
2023/01/28 09:36:35;;;;;;;14.47;6.93;;;4.30;99.90;;;;;;5093276;28;20188;-69
2023/01/28 09:39:01;;;;;;;15.97;8.57;;;4.20;99.90;;;;;;5091480;28;20215;-69
2023/01/28 09:41:50;;;;;;;12.23;7.83;;;4.20;99.90;;;;;;5091062;28;20189;-68
2023/01/28 09:44:48;;;;;;;14.97;8.43;;;4.00;99.90;;;;;;5079452;28;20181;-69
2023/01/28 09:47:56;;;;;;;12.40;7.60;;;4.00;99.90;;;;;;5077919;28;20286;-68
2023/01/28 09:50:35;;;;;;;14.10;7.77;;;3.80;99.90;;;;;;5090947;28;20287;-69
2023/01/28 09:53:18;;;;;;;13.23;9.13;;;3.80;99.90;;;;;;5092792;28;20204;-68
2023/01/28 09:55:47;;;;;;;11.80;7.80;;;3.80;99.90;;;;;;5098875;28;20199;-68
2023/01/28 09:58:16;;;;;;;17.10;7.57;;;3.80;99.90;;;;;;5095061;28;20230;-69
2023/01/28 10:01:10;;;;;;;18.87;9.30;;;3.70;99.90;;;;;;5092643;28;20257;-69
2023/01/28 10:03:56;;;;;;;16.30;8.67;;;3.70;99.90;;;;;;5077783;28;20189;-69
2023/01/28 10:06:51;;;;;;;13.40;6.77;;;3.70;99.90;;;;;;5105951;28;20177;-67
2023/01/28 10:09:31;;;;;;;16.70;8.67;;;3.70;99.90;;;;;;5093575;28;20184;-69
2023/01/28 10:12:08;;;;;;;16.77;8.77;;;3.60;99.90;;;;;;5089242;28;20536;-69
2023/01/28 10:15:09;;;;;;;13.57;7.93;;;3.60;99.90;;;;;;5080404;28;20260;-69
2023/01/28 10:17:44;;;;;;;14.83;8.50;;;3.90;99.90;;;;;;5025493;28;20205;-68
2023/01/28 10:20:16;;;;;;;13.83;6.97;;;4.10;99.90;;;;;;5081285;28;20219;-69
2023/01/28 10:22:50;;;;;;;15.50;8.10;;;4.40;99.90;;;;;;5095403;28;20199;-70
2023/01/28 10:25:21;;;;;;;14.13;8.43;;;4.20;99.90;;;;;;5074553;28;20177;-70
2023/01/28 10:27:49;;;;;;;13.67;10.03;;;4.10;99.90;;;;;;5082710;28;20181;-68
2023/01/28 10:30:18;;;;;;;14.77;7.83;;;3.90;99.90;;;;;;5088145;28;20220;-69
2023/01/28 10:32:55;;;;;;;14.83;8.00;;;3.80;99.90;;;;;;5083128;28;20267;-69
2023/01/28 10:35:21;;;;;;;11.83;7.07;;;3.80;99.90;;;;;;5087759;28;20180;-69
2023/01/28 10:37:47;;;;;;;13.50;8.80;;;3.50;99.90;;;;;;5101971;28;20617;-68
2023/01/28 10:40:17;;;;;;;13.53;7.13;;;3.50;99.90;;;;;;5088737;28;20208;-68
2023/01/28 10:42:44;;;;;;;10.33;6.60;;;3.60;99.90;;;;;;5088058;28;20181;-68
2023/01/28 10:45:20;;;;;;;12.93;7.80;;;3.60;99.90;;;;;;5074455;28;20200;-68
2023/01/28 10:48:26;;;;;;;10.10;6.83;;;3.60;99.90;;;;;;5085988;28;20582;-69
2023/01/28 10:51:00;;;;;;;12.37;6.60;;;3.60;99.90;;;;;;5065326;28;20216;-69
2023/01/28 10:53:37;;;;;;;16.00;7.70;;;3.80;99.90;;;;;;5092179;28;20543;-69
2023/01/28 10:56:07;;;;;;;14.70;8.07;;;3.60;99.90;;;;;;5087821;28;20275;-69
2023/01/28 10:58:35;;;;;;;14.27;8.20;;;3.60;99.90;;;;;;5093566;28;20725;-69
2023/01/28 11:01:04;;;;;;;17.17;8.90;;;3.60;99.90;;;;;;5092815;28;20212;-68
2023/01/28 11:03:31;;;;;;;12.23;6.80;;;3.60;99.90;;;;;;5104908;28;20197;-68
2023/01/28 11:05:57;;;;;;;15.50;8.30;;;3.70;99.90;;;;;;5092990;28;20178;-69
2023/01/28 11:08:26;;;;;;;14.83;7.77;;;3.90;99.90;;;;;;5093040;28;20188;-68
2023/01/28 11:10:53;;;;;;;12.70;6.87;;;4.00;99.90;;;;;;5088711;28;20193;-68
2023/01/28 11:13:22;;;;;;;13.73;7.67;;;4.10;99.90;;;;;;5091209;28;20180;-69
2023/01/28 11:15:52;;;;;;;14.80;8.13;;;3.80;99.90;;;;;;5092554;28;20168;-68
2023/01/28 11:18:23;;;;;;;10.57;6.80;;;3.70;99.90;;;;;;5090413;28;20195;-68
2023/01/28 11:21:02;;;;;;;13.13;6.70;;;3.80;99.90;;;;;;5087791;28;20274;-68
2023/01/28 11:23:34;;;;;;;12.33;7.10;;;3.70;99.90;;;;;;5087787;28;20242;-69
2023/01/28 11:26:03;;;;;;;14.60;8.40;;;3.70;99.90;;;;;;5083903;28;20181;-69
2023/01/28 11:28:30;;;;;;;11.50;7.07;;;3.70;99.90;;;;;;5102322;28;20300;-69
2023/01/28 11:30:58;;;;;;;14.43;6.40;;;3.60;99.90;;;;;;5083672;28;20260;-69
2023/01/28 11:33:36;;;;;;;12.77;6.47;;;3.70;99.90;;;;;;5086420;28;20245;-69
2023/01/28 11:36:30;;;;;;;19.17;8.67;;;3.80;99.90;;;;;;5092720;28;20168;-68
2023/01/28 11:39:04;;;;;;;12.33;7.97;;;3.80;99.90;;;;;;5092127;28;20181;-69
2023/01/28 11:41:32;;;;;;;13.13;7.10;;;3.90;99.90;;;;;;5083193;28;20185;-69
2023/01/28 11:44:09;;;;;;;12.60;7.10;;;3.70;99.90;;;;;;5079559;28;20189;-69
2023/01/28 11:46:47;;;;;;;14.70;7.77;;;3.60;99.90;;;;;;5092245;28;20652;-69
2023/01/28 11:49:51;;;;;;;16.30;9.17;;;3.70;99.90;;;;;;5100880;28;20238;-69
2023/01/28 11:52:37;;;;;;;14.10;7.53;;;3.80;99.90;;;;;;5086998;28;20660;-68
2023/01/28 11:55:39;;;;;;;11.73;7.13;;;3.90;99.90;;;;;;5105492;28;20597;-69
2023/01/28 11:58:14;;;;;;;13.00;7.43;;;3.90;99.90;;;;;;5106704;28;20684;-69
2023/01/28 12:00:58;;;;;;;15.03;8.00;;;4.00;99.90;;;;;;5092107;28;20281;-69
2023/01/28 12:03:41;;;;;;;9.93;7.57;;;4.10;99.90;;;;;;5090724;28;20185;-69
2023/01/28 12:06:42;;;;;;;15.70;9.57;;;4.20;99.90;;;;;;5088013;28;20561;-69
2023/01/28 12:09:24;;;;;;;13.63;8.00;;;4.20;99.90;;;;;;5074947;28;20223;-68
2023/01/28 12:14:55;;;;;;;12.10;7.40;;;3.90;99.90;;;;;;5086950;28;20226;-70
2023/01/28 12:17:37;;;;;;;11.00;7.33;;;3.90;99.90;;;;;;5079748;28;20189;-70
2023/01/28 12:20:17;;;;;;;17.77;8.20;;;4.10;99.90;;;;;;5084479;28;20339;-70
2023/01/28 12:22:58;;;;;;;15.50;8.13;;;4.20;99.90;;;;;;5088710;28;20192;-70
2023/01/28 12:25:47;;;;;;;14.83;7.87;;;4.30;99.90;;;;;;5086590;28;20181;-71
2023/01/28 12:28:31;;;;;;;16.13;8.67;;;4.40;99.90;;;;;;5084362;28;20225;-71
2023/01/28 12:31:08;;;;;;;14.23;7.77;;;4.60;99.90;;;;;;5074541;28;20668;-70
2023/01/28 12:34:02;;;;;;;13.67;6.93;;;4.70;99.90;;;;;;5084607;28;20177;-69
2023/01/28 12:36:54;;;;;;;13.97;8.03;;;4.70;99.90;;;;;;5076982;28;20189;-69
2023/01/28 12:39:48;;;;;;;17.30;7.90;;;4.90;99.90;;;;;;5076274;28;20212;-69
2023/01/28 12:42:35;;;;;;;13.83;6.93;;;4.80;99.90;;;;;;5081149;28;20188;-70
2023/01/28 12:45:25;;;;;;;11.93;8.03;;;4.70;99.90;;;;;;5088121;28;20172;-70
2023/01/28 12:48:07;;;;;;;15.97;6.93;;;4.70;99.90;;;;;;5091011;28;20203;-69
2023/01/28 12:50:40;;;;;;;16.93;8.63;;;4.90;99.90;;;;;;5091832;28;20191;-70
2023/01/28 12:53:26;;;;;;;12.80;7.40;;;5.20;99.90;;;;;;5078475;28;20226;-71
2023/01/28 12:56:05;;;;;;;13.63;7.50;;;5.20;99.90;;;;;;5083466;28;20177;-71
2023/01/28 12:58:49;;;;;;;11.30;7.00;;;5.00;99.90;;;;;;5078871;28;20180;-71
2023/01/28 13:01:22;;;;;;;16.10;7.80;;;4.70;99.90;;;;;;5091479;28;20658;-72
2023/01/28 13:04:05;;;;;;;15.17;7.40;;;4.60;99.90;;;;;;5075877;28;20178;-72
2023/01/28 13:06:47;;;;;;;14.53;8.00;;;4.60;99.90;;;;;;5079442;28;20181;-71
2023/01/28 13:09:23;;;;;;;13.37;7.60;;;4.30;99.90;;;;;;5078917;28;20194;-71
2023/01/28 13:11:50;;;;;;;17.53;8.03;;;4.30;99.90;;;;;;5084656;28;20207;-71
2023/01/28 13:14:18;;;;;;;15.90;7.53;;;4.40;99.90;;;;;;5089815;28;20209;-71
2023/01/28 13:16:44;;;;;;;16.87;8.13;;;4.50;99.90;;;;;;5082649;28;20200;-72
2023/01/28 13:19:18;;;;;;;17.73;8.53;;;4.50;99.90;;;;;;5086036;28;20248;-72
2023/01/28 13:21:46;;;;;;;11.27;6.80;;;4.80;99.90;;;;;;5076366;28;20218;-74
2023/01/28 13:24:15;;;;;;;15.13;7.80;;;4.90;99.90;;;;;;5087050;28;20511;-72
2023/01/28 13:26:45;;;;;;;15.73;7.20;;;4.90;99.90;;;;;;5081819;28;20747;-71
2023/01/28 13:29:13;;;;;;;14.63;7.20;;;5.00;99.90;;;;;;5077197;28;20242;-72
2023/01/28 13:31:42;;;;;;;17.00;8.47;;;4.90;99.90;;;;;;5080347;28;20182;-71
2023/01/28 13:34:28;;;;;;;13.10;7.37;;;4.80;99.90;;;;;;5094363;28;20180;-70
2023/01/28 13:36:55;;;;;;;18.70;9.33;;;4.90;99.90;;;;;;5103221;27;20545;-71
2023/01/28 13:39:24;;;;;;;17.80;8.03;;;4.90;99.90;;;;;;5099199;28;20204;-71
2023/01/28 13:42:06;;;;;;;18.40;8.73;;;5.20;99.90;;;;;;5100198;28;20184;-71